Time;durP1;ratioP1;P1;durP2;ratioP2;P2;SDS_P1;SDS_P2;PMS_P1;PMS_P2;Temp;Humidity;BMP_temperature;BMP_pressure;BME280_temperature;BME280_humidity;BME280_pressure;Samples;Min_cycle;Max_cycle;Signal;HPM_P1;HPM_P2
2021/07/12 00:00:48;;;;;;;1.50;0.90;;;18.50;98.20;;;;;;5009614;28;20600;-78
2021/07/12 00:03:14;;;;;;;1.50;0.90;;;18.40;98.20;;;;;;5003592;28;20839;-78
2021/07/12 00:05:41;;;;;;;1.53;1.20;;;18.40;98.20;;;;;;5002090;28;20463;-78
2021/07/12 00:08:10;;;;;;;1.50;0.90;;;18.40;98.20;;;;;;5002939;28;20487;-78
2021/07/12 00:10:38;;;;;;;1.50;1.00;;;18.40;98.20;;;;;;4999617;28;20987;-79
2021/07/12 00:13:06;;;;;;;1.50;1.10;;;18.40;98.20;;;;;;5001930;28;20523;-79
2021/07/12 00:15:33;;;;;;;1.50;0.90;;;18.40;98.20;;;;;;5005743;28;20468;-77
2021/07/12 00:18:00;;;;;;;1.50;0.90;;;18.40;98.20;;;;;;5005069;28;20468;-79
2021/07/12 00:20:27;;;;;;;1.50;1.00;;;18.40;98.20;;;;;;5009299;28;21180;-78
2021/07/12 00:22:57;;;;;;;1.50;0.90;;;18.30;98.20;;;;;;5007452;28;21041;-79
2021/07/12 00:25:25;;;;;;;1.50;0.93;;;18.30;98.20;;;;;;5013018;28;20457;-78
2021/07/12 00:27:53;;;;;;;1.50;0.90;;;18.30;98.20;;;;;;5010931;28;20792;-78
2021/07/12 00:30:23;;;;;;;1.50;0.90;;;18.30;98.20;;;;;;5011188;28;20503;-78
2021/07/12 00:32:51;;;;;;;1.50;1.00;;;18.30;98.20;;;;;;5014046;28;20805;-79
2021/07/12 00:35:18;;;;;;;1.50;1.03;;;18.30;98.20;;;;;;5008411;28;20461;-79
2021/07/12 00:37:45;;;;;;;1.50;0.90;;;18.30;98.20;;;;;;5002903;28;20457;-79
2021/07/12 00:40:15;;;;;;;1.50;1.00;;;18.30;98.20;;;;;;5012318;28;20476;-78
2021/07/12 00:42:43;;;;;;;1.50;1.00;;;18.30;98.20;;;;;;5014428;28;20467;-77
2021/07/12 00:45:13;;;;;;;1.50;0.90;;;18.30;98.20;;;;;;5010251;28;20469;-79
2021/07/12 00:47:42;;;;;;;1.50;0.93;;;18.20;98.20;;;;;;5012637;28;20485;-78
2021/07/12 00:50:10;;;;;;;1.50;0.90;;;18.20;98.20;;;;;;5000031;28;20484;-79
2021/07/12 00:52:37;;;;;;;1.50;1.00;;;18.20;98.20;;;;;;5010155;28;20479;-79
2021/07/12 00:55:13;;;;;;;1.53;1.00;;;18.20;98.20;;;;;;5007640;28;20468;-79
2021/07/12 00:57:40;;;;;;;1.50;0.90;;;18.20;98.20;;;;;;5008386;28;20468;-79
2021/07/12 01:00:08;;;;;;;1.50;0.97;;;18.20;98.20;;;;;;5014932;28;20480;-78
2021/07/12 01:02:35;;;;;;;1.50;1.00;;;18.10;98.20;;;;;;5012874;28;20476;-79
2021/07/12 01:05:05;;;;;;;1.50;0.90;;;18.10;98.20;;;;;;5009023;28;20961;-79
2021/07/12 01:07:31;;;;;;;1.50;1.00;;;18.10;98.20;;;;;;5007915;28;20469;-79
2021/07/12 01:09:58;;;;;;;1.50;0.90;;;18.10;98.20;;;;;;5003435;28;20485;-79
2021/07/12 01:12:31;;;;;;;1.50;0.90;;;18.10;98.20;;;;;;5003126;28;20859;-79
2021/07/12 01:15:05;;;;;;;1.50;0.90;;;18.00;98.20;;;;;;5006661;28;20469;-79
2021/07/12 01:17:41;;;;;;;1.50;0.90;;;18.00;98.20;;;;;;5005386;28;20460;-79
2021/07/12 01:20:43;;;;;;;1.50;0.90;;;18.00;98.20;;;;;;5005127;28;20511;-79
2021/07/12 01:23:36;;;;;;;1.50;0.90;;;18.00;98.20;;;;;;5009357;28;20511;-78
2021/07/12 01:26:47;;;;;;;1.50;1.00;;;18.00;98.20;;;;;;5007898;28;20461;-78
2021/07/12 01:29:24;;;;;;;1.50;1.00;;;18.00;98.20;;;;;;5010716;28;20520;-78
2021/07/12 01:32:30;;;;;;;1.97;1.60;;;17.90;98.20;;;;;;5009083;28;21029;-79
2021/07/12 01:35:04;;;;;;;1.50;1.00;;;17.90;98.20;;;;;;5015253;28;20468;-79
2021/07/12 01:37:40;;;;;;;1.50;1.00;;;17.90;98.20;;;;;;5011081;28;20461;-79
2021/07/12 01:40:12;;;;;;;1.50;0.90;;;17.90;98.20;;;;;;5005574;28;20487;-79
2021/07/12 01:42:45;;;;;;;1.50;1.00;;;17.90;98.20;;;;;;4999157;28;20991;-79
2021/07/12 01:45:15;;;;;;;1.50;1.00;;;17.80;98.20;;;;;;5007258;28;20475;-78
2021/07/12 01:48:09;;;;;;;1.50;0.90;;;17.80;98.20;;;;;;5009019;28;20859;-79
2021/07/12 01:50:45;;;;;;;1.50;0.90;;;17.80;98.20;;;;;;5009534;28;20468;-78
2021/07/12 01:53:17;;;;;;;1.50;1.00;;;17.80;98.20;;;;;;5006951;28;20496;-79
2021/07/12 01:55:56;;;;;;;1.50;1.00;;;17.80;98.20;;;;;;5020706;28;20551;-78
2021/07/12 01:58:30;;;;;;;1.50;1.00;;;17.70;98.20;;;;;;5007531;28;20855;-78
2021/07/12 02:00:57;;;;;;;1.50;0.90;;;17.70;98.20;;;;;;5006876;28;20814;-79
2021/07/12 02:03:27;;;;;;;1.50;0.90;;;17.70;98.20;;;;;;5007203;28;21041;-79
2021/07/12 02:05:58;;;;;;;1.50;0.90;;;17.70;98.20;;;;;;5012837;28;20543;-79
2021/07/12 02:08:26;;;;;;;1.50;1.00;;;17.70;98.20;;;;;;5014858;28;20484;-78
2021/07/12 02:10:55;;;;;;;1.50;1.00;;;17.70;98.20;;;;;;5013427;28;20469;-80
2021/07/12 02:13:22;;;;;;;1.50;1.00;;;17.60;98.20;;;;;;5008671;28;20467;-80
2021/07/12 02:15:52;;;;;;;1.50;1.00;;;17.60;98.20;;;;;;5005386;28;20524;-80
2021/07/12 02:18:24;;;;;;;1.50;1.00;;;17.60;98.20;;;;;;5010324;28;20732;-79
2021/07/12 02:20:55;;;;;;;1.50;0.93;;;17.60;98.20;;;;;;5010565;28;20494;-80
2021/07/12 02:23:23;;;;;;;2.50;2.30;;;17.60;98.20;;;;;;5006684;28;20476;-80
2021/07/12 02:25:51;;;;;;;1.50;1.00;;;17.60;98.20;;;;;;5008342;28;20476;-77
2021/07/12 02:28:20;;;;;;;1.50;0.97;;;17.50;98.20;;;;;;5007652;28;20485;-79
2021/07/12 02:30:47;;;;;;;1.57;1.00;;;17.60;98.20;;;;;;5008872;28;20471;-81
2021/07/12 02:33:15;;;;;;;1.50;0.90;;;17.60;98.20;;;;;;5004917;28;20467;-80
2021/07/12 02:35:42;;;;;;;1.50;1.00;;;17.60;98.20;;;;;;5009666;28;20474;-80
2021/07/12 02:38:11;;;;;;;1.50;0.90;;;17.60;98.20;;;;;;5013618;28;20457;-80
2021/07/12 02:40:39;;;;;;;1.50;0.90;;;17.60;98.20;;;;;;5010381;28;20464;-81
2021/07/12 02:43:07;;;;;;;1.50;0.90;;;17.60;98.20;;;;;;5006754;28;20467;-80
2021/07/12 02:45:38;;;;;;;1.50;1.00;;;17.60;98.20;;;;;;5007208;28;20456;-80
2021/07/12 02:48:05;;;;;;;1.50;0.90;;;17.60;98.20;;;;;;5009185;28;20476;-80
2021/07/12 02:50:33;;;;;;;1.50;0.90;;;17.60;98.20;;;;;;5005957;28;20475;-82
2021/07/12 02:53:04;;;;;;;1.50;1.00;;;17.60;98.20;;;;;;5011234;28;20825;-80
2021/07/12 02:55:32;;;;;;;1.50;1.00;;;17.60;98.20;;;;;;5007096;28;20474;-81
2021/07/12 02:57:59;;;;;;;1.50;1.00;;;17.60;98.20;;;;;;5010161;28;20469;-80
2021/07/12 03:00:26;;;;;;;1.50;0.90;;;17.50;98.20;;;;;;5010708;28;20492;-80
2021/07/12 03:02:53;;;;;;;1.50;1.00;;;17.50;98.20;;;;;;5018177;28;20482;-80
2021/07/12 03:05:19;;;;;;;1.50;0.90;;;17.50;98.20;;;;;;5018230;28;20461;-81
2021/07/12 03:07:55;;;;;;;1.50;1.00;;;17.50;98.20;;;;;;5010395;28;20552;-80
2021/07/12 03:10:27;;;;;;;1.53;0.90;;;17.50;98.20;;;;;;5009925;28;20499;-80
2021/07/12 03:12:59;;;;;;;1.80;1.30;;;17.40;98.20;;;;;;5004767;28;20457;-80
2021/07/12 03:15:31;;;;;;;1.50;0.90;;;17.40;98.20;;;;;;5010397;28;20464;-80
2021/07/12 03:18:03;;;;;;;1.50;0.90;;;17.40;98.20;;;;;;5004622;28;20846;-81
2021/07/12 03:20:32;;;;;;;1.50;1.00;;;17.40;98.20;;;;;;4999455;28;20456;-82
2021/07/12 03:23:02;;;;;;;1.50;1.00;;;17.40;98.20;;;;;;4999651;28;20449;-81
2021/07/12 03:25:33;;;;;;;1.50;0.90;;;17.40;98.20;;;;;;5004223;28;20461;-80
2021/07/12 03:28:03;;;;;;;1.50;1.00;;;17.40;98.20;;;;;;5006775;28;20461;-81
2021/07/12 03:30:33;;;;;;;1.50;0.90;;;17.30;98.20;;;;;;5010539;28;20495;-81
2021/07/12 03:33:00;;;;;;;1.50;0.90;;;17.30;98.20;;;;;;5018318;28;20482;-82
2021/07/12 03:35:34;;;;;;;1.50;1.00;;;17.30;98.20;;;;;;5012166;28;20476;-81
2021/07/12 03:38:01;;;;;;;1.50;0.97;;;17.30;98.20;;;;;;5027408;28;20465;-81
2021/07/12 03:40:28;;;;;;;1.50;0.90;;;17.30;98.20;;;;;;5016782;28;20474;-83
2021/07/12 03:42:55;;;;;;;1.50;0.97;;;17.30;98.20;;;;;;5002238;28;20465;-82
2021/07/12 03:45:23;;;;;;;1.50;1.00;;;17.40;98.20;;;;;;4999557;28;20464;-82
2021/07/12 03:47:51;;;;;;;1.50;1.00;;;17.40;98.20;;;;;;5006776;28;20460;-80
2021/07/12 03:50:18;;;;;;;1.50;0.90;;;17.40;98.20;;;;;;5015293;28;20786;-82
2021/07/12 03:52:48;;;;;;;1.53;1.00;;;17.40;98.20;;;;;;5003190;28;20461;-80
2021/07/12 03:55:17;;;;;;;1.50;1.00;;;17.40;98.20;;;;;;5015932;28;20528;-83
2021/07/12 03:57:44;;;;;;;1.50;1.00;;;17.40;98.20;;;;;;5011897;28;20524;-81
2021/07/12 04:00:13;;;;;;;1.50;1.00;;;17.40;98.20;;;;;;5014724;28;20999;-81
2021/07/12 04:02:41;;;;;;;1.50;0.90;;;17.40;98.20;;;;;;5005703;28;20824;-82
2021/07/12 04:05:09;;;;;;;1.50;1.00;;;17.40;98.20;;;;;;5015351;28;20463;-82
2021/07/12 04:07:37;;;;;;;1.50;0.90;;;17.40;98.20;;;;;;5008646;28;20470;-81
2021/07/12 04:10:06;;;;;;;1.50;0.90;;;17.40;98.20;;;;;;5006897;28;20588;-81
2021/07/12 04:12:33;;;;;;;1.50;0.90;;;17.40;98.20;;;;;;5007094;28;20461;-83
2021/07/12 04:15:00;;;;;;;1.77;1.47;;;17.40;98.20;;;;;;5006140;28;20453;-82
2021/07/12 04:17:27;;;;;;;1.50;1.03;;;17.40;98.20;;;;;;5002441;28;20478;-81
2021/07/12 04:19:56;;;;;;;1.50;0.90;;;17.30;98.20;;;;;;5006293;28;21062;-82
2021/07/12 04:22:25;;;;;;;1.50;0.90;;;17.30;98.20;;;;;;5009916;28;20494;-81
2021/07/12 04:24:52;;;;;;;1.50;0.90;;;17.30;98.20;;;;;;5016211;28;20543;-81
2021/07/12 04:27:19;;;;;;;1.50;0.97;;;17.40;98.20;;;;;;5012525;28;20491;-83
2021/07/12 04:29:46;;;;;;;1.50;1.00;;;17.40;98.20;;;;;;5004110;28;20493;-81
2021/07/12 04:32:14;;;;;;;1.50;1.00;;;17.40;98.20;;;;;;5013739;28;20464;-81
2021/07/12 04:34:40;;;;;;;1.53;1.00;;;17.50;98.20;;;;;;5014256;28;20490;-81
2021/07/12 04:37:08;;;;;;;1.50;0.90;;;17.50;98.20;;;;;;5010440;28;20465;-80
2021/07/12 04:39:36;;;;;;;1.50;1.00;;;17.60;98.20;;;;;;5008741;28;20477;-80
2021/07/12 04:42:02;;;;;;;1.50;0.90;;;17.60;98.20;;;;;;5001173;28;20490;-80
2021/07/12 04:44:29;;;;;;;1.50;0.90;;;17.70;98.20;;;;;;5008608;28;20870;-81
2021/07/12 04:46:57;;;;;;;1.50;1.00;;;17.70;98.20;;;;;;5011185;28;20551;-80
2021/07/12 04:49:26;;;;;;;1.50;1.00;;;17.80;98.20;;;;;;5005353;28;20971;-82
2021/07/12 04:51:53;;;;;;;1.50;1.00;;;17.80;98.20;;;;;;5004315;28;20482;-80
2021/07/12 04:54:27;;;;;;;1.50;0.90;;;17.80;98.20;;;;;;5003094;28;20859;-81
2021/07/12 04:56:54;;;;;;;1.60;1.27;;;17.90;98.20;;;;;;4995721;28;20464;-80
2021/07/12 04:59:25;;;;;;;1.50;0.90;;;17.90;98.20;;;;;;4994855;28;20524;-81
2021/07/12 05:02:00;;;;;;;1.50;0.90;;;18.00;98.20;;;;;;5004802;28;20471;-81
2021/07/12 05:04:27;;;;;;;1.50;0.90;;;18.10;98.20;;;;;;5004041;28;20973;-80
2021/07/12 05:07:00;;;;;;;1.50;0.90;;;18.10;98.20;;;;;;5011252;28;20496;-80
2021/07/12 05:09:28;;;;;;;1.53;0.90;;;18.30;98.20;;;;;;5004369;28;20754;-84
2021/07/12 05:11:55;;;;;;;1.50;0.90;;;18.30;98.20;;;;;;5018165;28;20464;-82
2021/07/12 05:14:24;;;;;;;1.50;0.90;;;18.40;98.20;;;;;;5007842;28;20477;-84
2021/07/12 05:16:51;;;;;;;1.50;0.90;;;18.40;98.20;;;;;;5005399;28;20859;-84
2021/07/12 05:19:20;;;;;;;1.50;0.90;;;18.50;98.20;;;;;;5016210;28;20488;-84
2021/07/12 05:21:47;;;;;;;1.50;1.00;;;18.50;98.20;;;;;;5017800;28;20956;-85
2021/07/12 05:24:14;;;;;;;1.50;0.90;;;18.60;98.20;;;;;;5014889;28;20470;-83
2021/07/12 05:26:43;;;;;;;1.50;0.90;;;18.80;98.20;;;;;;5013601;28;20460;-84
2021/07/12 05:29:13;;;;;;;1.50;0.93;;;18.90;98.20;;;;;;5019642;28;20488;-84
2021/07/12 05:31:39;;;;;;;1.50;1.00;;;19.00;98.20;;;;;;5015332;28;20856;-84
2021/07/12 05:34:06;;;;;;;1.50;0.97;;;19.00;98.20;;;;;;5041970;23;20464;-80
2021/07/12 05:36:33;;;;;;;1.50;0.90;;;19.00;98.20;;;;;;5012584;28;20479;-80
2021/07/12 05:38:59;;;;;;;1.50;0.93;;;19.00;98.20;;;;;;5018830;28;20637;-81
2021/07/12 05:41:29;;;;;;;1.50;0.90;;;19.10;98.20;;;;;;5017879;28;20662;-82
2021/07/12 05:43:57;;;;;;;1.50;0.90;;;19.20;98.20;;;;;;5021645;28;20511;-82
2021/07/12 05:46:24;;;;;;;1.70;1.10;;;19.30;98.20;;;;;;4997045;28;20495;-82
2021/07/12 05:48:51;;;;;;;1.50;0.93;;;19.30;98.20;;;;;;5000002;28;20461;-80
2021/07/12 05:51:18;;;;;;;1.50;0.90;;;19.40;98.20;;;;;;4998167;28;20484;-80
2021/07/12 05:53:44;;;;;;;1.50;0.90;;;19.50;98.20;;;;;;4997392;28;20464;-81
2021/07/12 05:56:11;;;;;;;1.50;0.90;;;19.60;98.20;;;;;;4998904;28;20487;-81
2021/07/12 05:58:38;;;;;;;1.50;0.90;;;19.60;98.20;;;;;;5001840;28;20464;-82
2021/07/12 06:01:06;;;;;;;1.50;0.90;;;19.70;98.20;;;;;;4982244;28;20454;-82
2021/07/12 06:03:34;;;;;;;1.50;0.90;;;19.80;98.20;;;;;;4977935;28;20458;-79
2021/07/12 06:06:02;;;;;;;1.50;0.90;;;19.90;98.20;;;;;;4983441;28;20482;-82
2021/07/12 06:08:29;;;;;;;1.50;0.90;;;19.90;98.20;;;;;;4993453;28;20465;-81
2021/07/12 06:10:55;;;;;;;1.50;0.90;;;20.00;98.20;;;;;;4999315;28;20488;-81
2021/07/12 06:13:22;;;;;;;1.53;1.00;;;20.10;98.20;;;;;;4999364;28;20583;-80
2021/07/12 06:15:49;;;;;;;1.50;0.90;;;20.20;98.20;;;;;;5000452;28;20493;-79
2021/07/12 06:18:17;;;;;;;1.50;0.90;;;20.20;98.20;;;;;;5000209;28;20472;-83
2021/07/12 06:20:45;;;;;;;1.53;1.00;;;20.30;98.20;;;;;;4992528;28;20465;-81
2021/07/12 06:23:11;;;;;;;1.53;0.90;;;20.40;98.20;;;;;;4999613;28;20461;-84
2021/07/12 06:25:38;;;;;;;1.50;0.90;;;20.40;98.20;;;;;;5001795;28;20472;-83
2021/07/12 06:28:06;;;;;;;1.50;0.90;;;20.50;98.20;;;;;;5004070;28;20449;-81
2021/07/12 06:30:32;;;;;;;1.50;0.90;;;20.70;98.20;;;;;;5001279;28;20629;-83
2021/07/12 06:32:59;;;;;;;1.60;1.07;;;20.90;98.20;;;;;;4998571;28;20564;-82
2021/07/12 06:35:27;;;;;;;1.50;0.90;;;21.00;98.20;;;;;;4996800;28;20492;-80
2021/07/12 06:37:54;;;;;;;1.50;0.90;;;21.10;98.20;;;;;;4992222;28;20462;-82
2021/07/12 06:40:22;;;;;;;1.50;0.90;;;21.10;98.20;;;;;;5000534;28;20461;-83
2021/07/12 06:42:49;;;;;;;1.50;0.90;;;21.10;98.20;;;;;;4999649;28;20526;-80
2021/07/12 06:45:16;;;;;;;1.50;0.90;;;21.20;98.20;;;;;;5001345;28;20487;-81
2021/07/12 06:47:43;;;;;;;1.53;1.00;;;21.20;98.20;;;;;;4999485;28;20465;-84
2021/07/12 06:50:10;;;;;;;1.50;0.90;;;21.30;98.20;;;;;;4991944;28;20486;-80
2021/07/12 06:52:38;;;;;;;1.60;1.10;;;21.30;98.10;;;;;;4996042;28;20684;-81
2021/07/12 06:55:06;;;;;;;1.70;1.00;;;21.50;98.20;;;;;;5004580;28;20477;-83
2021/07/12 06:57:33;;;;;;;1.50;0.90;;;21.60;98.00;;;;;;5002900;28;20457;-83
2021/07/12 07:00:00;;;;;;;1.50;0.90;;;21.80;97.50;;;;;;5002971;28;20488;-82
2021/07/12 07:02:26;;;;;;;1.50;0.90;;;21.90;96.80;;;;;;5000742;28;20653;-84
2021/07/12 07:04:53;;;;;;;1.50;0.90;;;21.90;96.20;;;;;;5000955;28;20954;-82
2021/07/12 07:07:20;;;;;;;1.50;0.90;;;22.00;96.70;;;;;;5002550;28;20473;-84
2021/07/12 07:09:48;;;;;;;1.50;0.90;;;22.10;96.30;;;;;;5003927;28;20484;-80
2021/07/12 07:12:16;;;;;;;1.50;0.90;;;22.20;96.50;;;;;;5003080;28;20464;-82
2021/07/12 07:14:43;;;;;;;1.70;1.10;;;22.40;96.00;;;;;;5004610;28;20473;-82
2021/07/12 07:17:10;;;;;;;1.50;0.90;;;22.60;95.20;;;;;;5003817;28;20460;-84
2021/07/12 07:19:37;;;;;;;1.50;0.90;;;22.90;94.70;;;;;;5003560;28;20475;-82
2021/07/12 07:22:05;;;;;;;1.50;0.90;;;23.10;93.60;;;;;;4999437;28;20630;-81
2021/07/12 07:24:32;;;;;;;1.53;0.90;;;23.30;92.70;;;;;;5003080;28;20481;-84
2021/07/12 07:27:00;;;;;;;1.50;0.90;;;23.40;92.50;;;;;;5000486;28;20462;-81
2021/07/12 07:29:26;;;;;;;1.50;0.90;;;23.40;91.70;;;;;;4996952;28;20464;-81
2021/07/12 07:31:54;;;;;;;1.50;0.90;;;23.40;92.10;;;;;;5009068;28;20453;-82
2021/07/12 07:34:21;;;;;;;1.50;0.90;;;23.40;92.60;;;;;;5002276;28;20493;-85
2021/07/12 07:36:49;;;;;;;1.50;0.90;;;23.70;91.30;;;;;;5002247;28;20457;-83
2021/07/12 07:39:16;;;;;;;1.50;0.83;;;23.80;90.30;;;;;;5003205;28;20465;-83
2021/07/12 07:41:42;;;;;;;1.50;0.90;;;24.00;90.20;;;;;;5001684;28;20471;-80
2021/07/12 07:44:14;;;;;;;1.50;0.90;;;24.20;89.80;;;;;;5000718;28;20465;-80
2021/07/12 07:46:41;;;;;;;1.50;0.90;;;24.30;89.30;;;;;;5003016;28;20548;-81
2021/07/12 07:49:08;;;;;;;1.50;0.90;;;24.40;88.50;;;;;;5002513;28;20469;-83
2021/07/12 07:51:37;;;;;;;1.50;0.90;;;24.40;88.60;;;;;;4999903;28;20497;-83
2021/07/12 07:54:04;;;;;;;1.70;1.20;;;24.20;88.60;;;;;;5001128;28;20488;-81
2021/07/12 07:56:31;;;;;;;1.50;0.90;;;24.10;89.00;;;;;;4999827;28;20461;-82
2021/07/12 07:58:58;;;;;;;1.50;1.00;;;24.00;89.90;;;;;;5001953;28;20803;-84
2021/07/12 08:01:31;;;;;;;1.50;0.90;;;24.10;90.70;;;;;;5001789;28;20445;-83
2021/07/12 08:03:58;;;;;;;1.50;0.90;;;24.40;90.00;;;;;;4999595;28;20580;-81
2021/07/12 08:06:25;;;;;;;2.10;1.40;;;24.60;88.40;;;;;;5001343;28;20486;-84
2021/07/12 08:08:52;;;;;;;1.50;0.87;;;24.70;88.60;;;;;;5001709;28;20461;-82
2021/07/12 08:11:18;;;;;;;1.50;0.90;;;24.80;87.50;;;;;;5001127;28;20484;-78
2021/07/12 08:13:45;;;;;;;1.50;0.90;;;25.00;87.70;;;;;;5000010;28;20453;-83
2021/07/12 08:16:12;;;;;;;1.50;0.90;;;25.00;86.90;;;;;;5001843;28;20495;-82
2021/07/12 08:18:41;;;;;;;1.50;0.90;;;25.10;86.10;;;;;;5000591;28;20465;-81
2021/07/12 08:21:08;;;;;;;1.50;0.90;;;25.10;85.80;;;;;;5002007;28;20829;-80
2021/07/12 08:23:34;;;;;;;1.50;0.83;;;25.30;85.80;;;;;;5003529;28;20464;-81
2021/07/12 08:26:01;;;;;;;1.50;0.90;;;25.50;85.90;;;;;;5001543;28;20485;-83
2021/07/12 08:28:29;;;;;;;1.50;0.90;;;25.50;85.40;;;;;;5000443;28;20461;-83
2021/07/12 08:30:56;;;;;;;1.50;0.90;;;25.60;85.10;;;;;;5000232;28;20513;-85
2021/07/12 08:33:23;;;;;;;1.50;0.90;;;25.80;84.50;;;;;;4996713;28;20468;-81
2021/07/12 08:35:51;;;;;;;1.50;0.80;;;25.80;84.60;;;;;;4998720;28;20488;-79
2021/07/12 08:38:19;;;;;;;1.50;0.83;;;25.90;84.40;;;;;;4999489;28;20461;-80
2021/07/12 08:40:47;;;;;;;1.50;0.80;;;26.10;84.00;;;;;;4994493;28;20625;-82
2021/07/12 08:43:14;;;;;;;1.50;0.80;;;26.20;84.30;;;;;;4999256;28;20473;-82
2021/07/12 08:45:41;;;;;;;1.50;0.80;;;26.30;82.70;;;;;;4997134;28;20572;-80
2021/07/12 08:48:08;;;;;;;1.50;0.80;;;26.40;82.90;;;;;;4999308;28;20520;-80
2021/07/12 08:50:35;;;;;;;1.50;0.90;;;26.60;82.30;;;;;;4999756;28;20488;-82
2021/07/12 08:53:04;;;;;;;1.50;0.90;;;26.70;82.40;;;;;;4999803;28;20471;-82
2021/07/12 08:55:31;;;;;;;1.50;0.80;;;26.80;81.90;;;;;;4998530;28;21007;-79
2021/07/12 08:58:00;;;;;;;1.50;0.80;;;27.00;80.40;;;;;;4999218;28;20765;-83
2021/07/12 09:00:45;;;;;;;1.50;0.80;;;27.10;80.10;;;;;;5000426;28;20452;-80
2021/07/12 09:03:25;;;;;;;1.50;0.87;;;27.10;79.50;;;;;;4999645;28;20464;-84
2021/07/12 09:06:06;;;;;;;1.50;0.90;;;27.20;80.30;;;;;;4998923;28;20542;-84
2021/07/12 09:08:46;;;;;;;1.50;0.80;;;27.20;78.70;;;;;;4998050;28;20467;-82
2021/07/12 09:11:33;;;;;;;1.50;0.87;;;27.30;79.00;;;;;;4998554;28;20923;-82
2021/07/12 09:14:03;;;;;;;1.50;0.80;;;27.30;79.50;;;;;;4997337;28;20829;-81
2021/07/12 09:16:39;;;;;;;1.50;1.10;;;27.50;79.50;;;;;;4995471;28;20461;-81
2021/07/12 09:19:21;;;;;;;1.50;0.80;;;27.70;78.50;;;;;;4999112;28;20997;-82
2021/07/12 09:21:59;;;;;;;1.50;0.80;;;27.90;76.70;;;;;;4999146;28;20463;-82
2021/07/12 09:24:45;;;;;;;1.50;0.80;;;28.00;76.60;;;;;;5000204;28;20994;-82
2021/07/12 09:27:13;;;;;;;1.50;0.80;;;28.30;77.30;;;;;;5000264;28;20591;-81
2021/07/12 09:29:43;;;;;;;1.50;0.80;;;28.40;75.60;;;;;;4998818;28;20461;-81
2021/07/12 09:32:12;;;;;;;1.50;0.80;;;28.60;75.70;;;;;;5000519;28;20488;-80
2021/07/12 09:34:39;;;;;;;1.50;0.90;;;28.70;75.50;;;;;;4999527;28;20499;-83
2021/07/12 09:37:08;;;;;;;1.40;0.80;;;28.80;74.00;;;;;;5000590;28;20444;-80
2021/07/12 09:39:38;;;;;;;1.50;0.80;;;28.90;74.40;;;;;;4999438;28;20465;-80
2021/07/12 09:42:10;;;;;;;1.50;0.90;;;29.00;74.80;;;;;;5000838;28;20453;-82
2021/07/12 09:44:39;;;;;;;1.50;0.80;;;29.10;74.30;;;;;;4998944;28;20801;-81
2021/07/12 09:47:09;;;;;;;1.50;0.80;;;29.10;72.90;;;;;;4999419;28;20491;-82
2021/07/12 09:49:37;;;;;;;1.47;0.80;;;29.20;73.70;;;;;;4998325;28;20552;-79
2021/07/12 09:52:06;;;;;;;1.50;0.80;;;29.20;73.60;;;;;;4999293;28;20523;-84
2021/07/12 09:54:36;;;;;;;1.50;0.87;;;29.30;72.90;;;;;;4999145;28;20491;-82
2021/07/12 09:57:09;;;;;;;1.50;1.00;;;29.30;72.40;;;;;;4999945;28;20469;-82
2021/07/12 09:59:37;;;;;;;1.40;0.90;;;29.10;72.60;;;;;;4997514;28;20477;-81
2021/07/12 10:02:05;;;;;;;1.50;0.90;;;28.90;72.30;;;;;;5000429;28;20841;-82
2021/07/12 10:04:31;;;;;;;1.50;1.00;;;28.80;74.30;;;;;;4998209;28;20476;-80
2021/07/12 10:07:07;;;;;;;1.50;0.90;;;28.80;73.50;;;;;;5000325;28;20463;-83
2021/07/12 10:09:34;;;;;;;1.47;0.80;;;28.70;73.50;;;;;;4992409;28;20471;-83
2021/07/12 10:12:13;;;;;;;1.47;0.87;;;28.80;74.30;;;;;;5000611;28;20484;-83
2021/07/12 10:14:40;;;;;;;1.47;0.80;;;29.00;72.90;;;;;;4996221;28;20484;-83
2021/07/12 10:17:09;;;;;;;1.40;0.80;;;29.20;72.40;;;;;;5000501;28;20461;-79
2021/07/12 10:19:36;;;;;;;1.50;0.80;;;29.40;72.80;;;;;;4996925;28;20465;-81
2021/07/12 10:22:05;;;;;;;1.50;0.90;;;29.50;71.70;;;;;;4993047;28;20456;-79
2021/07/12 10:24:37;;;;;;;1.47;0.80;;;29.40;71.70;;;;;;4996260;28;20484;-80
2021/07/12 10:27:05;;;;;;;1.43;0.80;;;29.10;71.60;;;;;;4996083;28;20479;-79
2021/07/12 10:29:35;;;;;;;1.50;0.80;;;29.10;71.80;;;;;;4990514;28;20635;-83
2021/07/12 10:32:11;;;;;;;1.47;0.80;;;29.20;72.50;;;;;;5006201;28;20972;-79
2021/07/12 10:34:43;;;;;;;1.50;0.80;;;29.30;72.40;;;;;;5014941;28;20483;-84
2021/07/12 10:37:18;;;;;;;1.43;0.80;;;29.40;71.90;;;;;;5016626;28;20791;-81
2021/07/12 10:40:18;;;;;;;1.47;0.80;;;29.20;72.60;;;;;;5016945;28;20513;-80
2021/07/12 10:42:54;;;;;;;1.47;0.90;;;29.10;72.80;;;;;;5016212;28;20452;-81
2021/07/12 10:45:36;;;;;;;1.47;0.83;;;28.90;73.70;;;;;;5013329;28;20475;-84
2021/07/12 10:48:06;;;;;;;1.50;1.00;;;28.90;73.00;;;;;;5001498;28;20484;-79
2021/07/12 10:50:44;;;;;;;1.50;0.80;;;28.80;72.80;;;;;;4998101;28;20548;-83
2021/07/12 10:53:39;;;;;;;1.47;0.80;;;28.80;74.10;;;;;;4999232;28;20472;-81
2021/07/12 10:56:17;;;;;;;1.50;0.80;;;28.90;72.10;;;;;;5008873;28;20511;-81
2021/07/12 10:58:48;;;;;;;1.47;0.80;;;28.90;73.30;;;;;;5010636;28;20884;-83
2021/07/12 11:01:47;;;;;;;1.50;0.80;;;28.90;72.40;;;;;;4995086;28;20963;-80
2021/07/12 11:04:34;;;;;;;1.50;0.80;;;28.80;71.50;;;;;;4993049;28;20452;-78
2021/07/12 11:07:02;;;;;;;1.50;1.00;;;28.80;71.80;;;;;;4978714;28;20466;-82
2021/07/12 11:09:55;;;;;;;1.50;1.07;;;28.80;73.20;;;;;;4984809;28;20468;-82
2021/07/12 11:12:27;;;;;;;1.40;0.80;;;28.80;72.80;;;;;;4995623;28;20481;-81
2021/07/12 11:15:08;;;;;;;1.43;0.80;;;28.90;71.90;;;;;;5003769;28;20498;-79
2021/07/12 11:17:57;;;;;;;1.47;0.80;;;28.80;71.60;;;;;;5005461;28;20456;-79
2021/07/12 11:21:04;;;;;;;1.43;0.80;;;28.80;72.50;;;;;;4996837;28;21042;-78
2021/07/12 11:23:51;;;;;;;1.50;0.80;;;28.90;71.20;;;;;;4996358;28;20468;-84
2021/07/12 11:26:47;;;;;;;1.50;0.90;;;28.80;71.70;;;;;;4999178;28;20485;-78
2021/07/12 11:29:36;;;;;;;1.47;0.80;;;28.70;72.00;;;;;;4999647;28;20951;-79
2021/07/12 11:32:14;;;;;;;1.50;0.87;;;28.50;72.70;;;;;;4994640;28;20502;-85
2021/07/12 11:34:48;;;;;;;1.50;0.80;;;28.40;72.20;;;;;;4998778;28;20574;-82
2021/07/12 11:37:16;;;;;;;1.47;0.90;;;28.30;72.30;;;;;;4994509;28;20460;-82
2021/07/12 11:39:45;;;;;;;1.47;0.80;;;28.20;71.10;;;;;;4994987;28;20472;-83
2021/07/12 11:42:18;;;;;;;1.50;0.90;;;28.00;72.70;;;;;;4997196;28;20532;-79
2021/07/12 11:44:47;;;;;;;1.50;0.80;;;28.00;72.90;;;;;;4995942;28;20477;-81
2021/07/12 11:47:16;;;;;;;1.47;0.87;;;28.00;73.80;;;;;;4995212;28;20465;-80
2021/07/12 11:49:54;;;;;;;1.47;0.80;;;28.00;73.00;;;;;;4997053;28;20860;-80
2021/07/12 11:52:23;;;;;;;1.43;0.90;;;27.90;72.70;;;;;;5001912;28;20484;-84
2021/07/12 11:54:56;;;;;;;1.50;1.00;;;28.00;73.40;;;;;;4995441;28;20483;-80
2021/07/12 11:57:23;;;;;;;1.47;0.80;;;28.10;72.20;;;;;;4992796;28;20492;-82
2021/07/12 11:59:49;;;;;;;1.47;0.80;;;28.20;71.80;;;;;;4979625;28;20460;-80
2021/07/12 12:02:18;;;;;;;1.47;0.80;;;28.20;71.80;;;;;;4995188;28;20553;-80
2021/07/12 12:04:47;;;;;;;1.43;0.80;;;28.20;70.80;;;;;;4994636;28;20499;-83
2021/07/12 12:07:24;;;;;;;1.47;0.80;;;28.20;71.20;;;;;;4996171;28;20464;-83
2021/07/12 12:09:52;;;;;;;1.50;0.80;;;28.30;71.50;;;;;;4975275;28;20556;-82
2021/07/12 12:12:24;;;;;;;1.43;0.90;;;28.20;71.80;;;;;;4990853;28;21026;-80
2021/07/12 12:14:51;;;;;;;1.50;0.80;;;28.20;72.60;;;;;;4996014;28;20484;-79
2021/07/12 12:17:18;;;;;;;1.50;0.80;;;28.20;73.20;;;;;;4994549;28;20852;-81
2021/07/12 12:20:08;;;;;;;1.47;0.80;;;28.30;73.00;;;;;;4991687;28;20461;-80
2021/07/12 12:22:37;;;;;;;1.50;0.90;;;28.30;72.10;;;;;;4991712;28;20464;-81
2021/07/12 12:25:06;;;;;;;1.50;0.80;;;28.30;72.10;;;;;;4993808;28;20496;-83
2021/07/12 12:27:37;;;;;;;1.50;0.90;;;28.50;73.00;;;;;;4994646;28;20472;-86
2021/07/12 12:30:07;;;;;;;3.00;2.60;;;28.50;72.60;;;;;;4993669;28;20469;-82
2021/07/12 12:32:35;;;;;;;1.43;0.80;;;28.40;72.10;;;;;;5013692;28;20571;-82
2021/07/12 12:35:04;;;;;;;1.43;0.80;;;28.30;72.60;;;;;;5011188;28;20604;-82
2021/07/12 12:37:37;;;;;;;1.47;0.90;;;28.30;73.00;;;;;;5012774;28;20498;-82
2021/07/12 12:40:18;;;;;;;1.47;0.80;;;28.20;72.90;;;;;;5012639;28;20467;-83
2021/07/12 12:42:46;;;;;;;1.47;0.80;;;28.10;72.50;;;;;;4991891;28;20859;-79
2021/07/12 12:45:23;;;;;;;1.43;0.80;;;28.00;72.50;;;;;;4993396;28;20480;-81
2021/07/12 12:47:50;;;;;;;1.40;0.80;;;28.00;73.30;;;;;;4979577;28;20479;-81
2021/07/12 12:50:18;;;;;;;1.50;0.90;;;28.00;72.60;;;;;;5002815;28;21042;-82
2021/07/12 12:52:46;;;;;;;1.47;0.80;;;28.10;72.10;;;;;;4988099;28;20472;-80
2021/07/12 12:55:14;;;;;;;1.47;0.83;;;28.20;72.40;;;;;;4994039;28;20481;-83
2021/07/12 12:57:43;;;;;;;1.43;0.80;;;28.20;72.00;;;;;;4996993;28;20471;-79
2021/07/12 13:00:12;;;;;;;1.50;0.80;;;28.20;72.50;;;;;;4995242;28;20555;-81
2021/07/12 13:02:40;;;;;;;1.47;0.80;;;28.20;72.30;;;;;;4993838;28;20467;-80
2021/07/12 13:05:09;;;;;;;1.43;0.80;;;28.20;72.60;;;;;;4992046;28;20495;-80